sensor_id;sensor_type;location;lat;lon;timestamp;P1;durP1;ratioP1;P2;durP2;ratioP2
12114;SDS011;6121;49.810;6.418;2023-07-29T00:02:09;10.70;;;4.30;;
12114;SDS011;6121;49.810;6.418;2023-07-29T00:04:35;12.65;;;5.15;;
12114;SDS011;6121;49.810;6.418;2023-07-29T00:07:01;11.82;;;4.55;;
12114;SDS011;6121;49.810;6.418;2023-07-29T00:09:27;13.82;;;5.55;;
12114;SDS011;6121;49.810;6.418;2023-07-29T00:11:53;12.77;;;5.00;;
12114;SDS011;6121;49.810;6.418;2023-07-29T00:14:19;14.18;;;5.43;;
12114;SDS011;6121;49.810;6.418;2023-07-29T00:16:45;13.23;;;5.35;;
12114;SDS011;6121;49.810;6.418;2023-07-29T00:19:10;10.90;;;4.63;;
12114;SDS011;6121;49.810;6.418;2023-07-29T00:21:37;16.53;;;6.60;;
12114;SDS011;6121;49.810;6.418;2023-07-29T00:24:02;7.47;;;3.30;;
12114;SDS011;6121;49.810;6.418;2023-07-29T00:26:29;11.25;;;4.72;;
12114;SDS011;6121;49.810;6.418;2023-07-29T00:28:55;13.52;;;5.30;;
12114;SDS011;6121;49.810;6.418;2023-07-29T00:31:21;17.15;;;6.50;;
12114;SDS011;6121;49.810;6.418;2023-07-29T00:33:47;12.10;;;4.87;;
12114;SDS011;6121;49.810;6.418;2023-07-29T00:36:14;13.57;;;5.32;;
12114;SDS011;6121;49.810;6.418;2023-07-29T00:38:40;15.98;;;6.30;;
12114;SDS011;6121;49.810;6.418;2023-07-29T00:41:05;13.13;;;5.17;;
12114;SDS011;6121;49.810;6.418;2023-07-29T00:43:33;13.13;;;5.35;;
12114;SDS011;6121;49.810;6.418;2023-07-29T00:46:02;10.90;;;4.35;;
12114;SDS011;6121;49.810;6.418;2023-07-29T00:48:28;13.10;;;5.10;;
12114;SDS011;6121;49.810;6.418;2023-07-29T00:50:54;16.15;;;6.10;;
12114;SDS011;6121;49.810;6.418;2023-07-29T00:53:21;13.70;;;5.45;;
12114;SDS011;6121;49.810;6.418;2023-07-29T00:55:49;13.43;;;5.20;;
12114;SDS011;6121;49.810;6.418;2023-07-29T00:58:15;13.80;;;5.30;;
12114;SDS011;6121;49.810;6.418;2023-07-29T01:00:41;18.40;;;7.00;;
12114;SDS011;6121;49.810;6.418;2023-07-29T01:03:07;13.48;;;5.35;;
12114;SDS011;6121;49.810;6.418;2023-07-29T01:05:40;14.18;;;5.57;;
12114;SDS011;6121;49.810;6.418;2023-07-29T01:08:36;12.15;;;4.88;;
12114;SDS011;6121;49.810;6.418;2023-07-29T01:11:22;12.13;;;4.90;;
12114;SDS011;6121;49.810;6.418;2023-07-29T01:14:04;14.48;;;5.63;;
12114;SDS011;6121;49.810;6.418;2023-07-29T01:16:39;14.02;;;5.65;;
12114;SDS011;6121;49.810;6.418;2023-07-29T01:19:15;12.33;;;4.87;;
12114;SDS011;6121;49.810;6.418;2023-07-29T01:22:00;14.00;;;5.47;;
12114;SDS011;6121;49.810;6.418;2023-07-29T01:24:28;13.27;;;5.32;;
12114;SDS011;6121;49.810;6.418;2023-07-29T01:26:54;11.67;;;4.63;;
12114;SDS011;6121;49.810;6.418;2023-07-29T01:29:20;9.50;;;3.85;;
12114;SDS011;6121;49.810;6.418;2023-07-29T01:31:47;13.37;;;5.33;;
12114;SDS011;6121;49.810;6.418;2023-07-29T01:34:24;8.95;;;3.83;;
12114;SDS011;6121;49.810;6.418;2023-07-29T01:36:54;14.15;;;5.50;;
12114;SDS011;6121;49.810;6.418;2023-07-29T01:39:23;12.32;;;4.97;;
12114;SDS011;6121;49.810;6.418;2023-07-29T01:41:50;14.65;;;5.82;;
12114;SDS011;6121;49.810;6.418;2023-07-29T01:44:16;11.80;;;4.70;;
12114;SDS011;6121;49.810;6.418;2023-07-29T01:46:44;14.50;;;5.63;;
12114;SDS011;6121;49.810;6.418;2023-07-29T01:49:09;12.57;;;5.07;;
12114;SDS011;6121;49.810;6.418;2023-07-29T01:51:35;16.33;;;6.20;;
12114;SDS011;6121;49.810;6.418;2023-07-29T01:54:02;13.20;;;5.38;;
12114;SDS011;6121;49.810;6.418;2023-07-29T01:56:28;12.67;;;5.10;;
12114;SDS011;6121;49.810;6.418;2023-07-29T01:58:55;11.75;;;4.70;;
12114;SDS011;6121;49.810;6.418;2023-07-29T02:01:21;13.23;;;5.20;;
12114;SDS011;6121;49.810;6.418;2023-07-29T02:03:47;15.30;;;5.93;;
12114;SDS011;6121;49.810;6.418;2023-07-29T02:06:20;12.48;;;4.93;;
12114;SDS011;6121;49.810;6.418;2023-07-29T02:08:47;14.65;;;5.65;;
12114;SDS011;6121;49.810;6.418;2023-07-29T02:11:13;12.93;;;5.07;;
12114;SDS011;6121;49.810;6.418;2023-07-29T02:13:39;13.67;;;5.20;;
12114;SDS011;6121;49.810;6.418;2023-07-29T02:16:06;13.90;;;5.43;;
12114;SDS011;6121;49.810;6.418;2023-07-29T02:18:32;13.73;;;5.35;;
12114;SDS011;6121;49.810;6.418;2023-07-29T02:20:57;16.63;;;6.40;;
12114;SDS011;6121;49.810;6.418;2023-07-29T02:23:24;12.00;;;4.82;;
12114;SDS011;6121;49.810;6.418;2023-07-29T02:25:50;13.63;;;5.27;;
12114;SDS011;6121;49.810;6.418;2023-07-29T02:28:15;12.55;;;4.95;;
12114;SDS011;6121;49.810;6.418;2023-07-29T02:30:42;14.38;;;5.85;;
12114;SDS011;6121;49.810;6.418;2023-07-29T02:33:10;12.70;;;4.90;;
12114;SDS011;6121;49.810;6.418;2023-07-29T02:35:36;14.27;;;5.40;;
12114;SDS011;6121;49.810;6.418;2023-07-29T02:38:02;14.57;;;5.50;;
12114;SDS011;6121;49.810;6.418;2023-07-29T02:40:29;15.32;;;5.85;;
12114;SDS011;6121;49.810;6.418;2023-07-29T02:42:55;15.10;;;5.97;;
12114;SDS011;6121;49.810;6.418;2023-07-29T02:45:21;11.17;;;4.43;;
12114;SDS011;6121;49.810;6.418;2023-07-29T02:47:47;12.73;;;4.97;;
12114;SDS011;6121;49.810;6.418;2023-07-29T02:50:13;15.82;;;5.90;;
12114;SDS011;6121;49.810;6.418;2023-07-29T02:52:39;18.73;;;7.05;;
12114;SDS011;6121;49.810;6.418;2023-07-29T02:55:05;11.23;;;4.47;;
12114;SDS011;6121;49.810;6.418;2023-07-29T02:57:31;12.30;;;4.90;;
12114;SDS011;6121;49.810;6.418;2023-07-29T02:59:57;12.80;;;5.00;;
12114;SDS011;6121;49.810;6.418;2023-07-29T03:02:23;12.33;;;4.83;;
12114;SDS011;6121;49.810;6.418;2023-07-29T03:04:50;13.50;;;5.20;;
12114;SDS011;6121;49.810;6.418;2023-07-29T03:07:16;14.55;;;5.55;;
12114;SDS011;6121;49.810;6.418;2023-07-29T03:09:42;13.23;;;5.17;;
12114;SDS011;6121;49.810;6.418;2023-07-29T03:12:09;14.35;;;5.57;;
12114;SDS011;6121;49.810;6.418;2023-07-29T03:14:35;14.10;;;5.38;;
12114;SDS011;6121;49.810;6.418;2023-07-29T03:17:04;14.30;;;5.40;;
12114;SDS011;6121;49.810;6.418;2023-07-29T03:19:30;13.65;;;5.13;;
12114;SDS011;6121;49.810;6.418;2023-07-29T03:21:56;17.35;;;6.55;;
12114;SDS011;6121;49.810;6.418;2023-07-29T03:24:22;13.75;;;5.22;;
12114;SDS011;6121;49.810;6.418;2023-07-29T03:26:48;12.75;;;4.90;;
12114;SDS011;6121;49.810;6.418;2023-07-29T03:29:14;13.00;;;4.97;;
12114;SDS011;6121;49.810;6.418;2023-07-29T03:31:40;16.03;;;6.13;;
12114;SDS011;6121;49.810;6.418;2023-07-29T03:34:05;13.93;;;5.30;;
12114;SDS011;6121;49.810;6.418;2023-07-29T03:36:32;12.93;;;4.93;;
12114;SDS011;6121;49.810;6.418;2023-07-29T03:38:59;14.23;;;5.57;;
12114;SDS011;6121;49.810;6.418;2023-07-29T03:41:26;15.05;;;5.80;;
12114;SDS011;6121;49.810;6.418;2023-07-29T03:43:51;12.65;;;5.03;;
12114;SDS011;6121;49.810;6.418;2023-07-29T03:46:17;14.30;;;5.43;;
12114;SDS011;6121;49.810;6.418;2023-07-29T03:48:47;14.80;;;5.55;;
12114;SDS011;6121;49.810;6.418;2023-07-29T03:51:13;16.02;;;6.15;;
12114;SDS011;6121;49.810;6.418;2023-07-29T03:53:39;16.65;;;6.20;;
12114;SDS011;6121;49.810;6.418;2023-07-29T03:56:05;13.23;;;5.28;;
12114;SDS011;6121;49.810;6.418;2023-07-29T03:58:31;10.73;;;4.33;;
12114;SDS011;6121;49.810;6.418;2023-07-29T04:00:58;14.03;;;5.40;;
12114;SDS011;6121;49.810;6.418;2023-07-29T04:03:25;14.77;;;5.63;;
12114;SDS011;6121;49.810;6.418;2023-07-29T04:05:53;13.30;;;5.25;;
12114;SDS011;6121;49.810;6.418;2023-07-29T04:08:19;13.70;;;5.25;;
12114;SDS011;6121;49.810;6.418;2023-07-29T04:10:45;14.13;;;5.37;;
12114;SDS011;6121;49.810;6.418;2023-07-29T04:13:11;11.55;;;4.57;;
12114;SDS011;6121;49.810;6.418;2023-07-29T04:15:37;12.23;;;4.80;;
12114;SDS011;6121;49.810;6.418;2023-07-29T04:18:03;12.70;;;5.00;;
12114;SDS011;6121;49.810;6.418;2023-07-29T04:20:30;15.38;;;5.82;;
12114;SDS011;6121;49.810;6.418;2023-07-29T04:22:56;12.65;;;4.97;;
12114;SDS011;6121;49.810;6.418;2023-07-29T04:25:22;11.63;;;4.80;;
12114;SDS011;6121;49.810;6.418;2023-07-29T04:27:47;10.95;;;4.45;;
12114;SDS011;6121;49.810;6.418;2023-07-29T04:30:13;10.50;;;4.28;;
12114;SDS011;6121;49.810;6.418;2023-07-29T04:32:39;11.95;;;4.85;;
12114;SDS011;6121;49.810;6.418;2023-07-29T04:35:08;13.45;;;5.25;;
12114;SDS011;6121;49.810;6.418;2023-07-29T04:37:36;14.17;;;5.47;;
12114;SDS011;6121;49.810;6.418;2023-07-29T04:40:02;10.80;;;4.47;;
12114;SDS011;6121;49.810;6.418;2023-07-29T04:42:29;12.25;;;4.80;;
12114;SDS011;6121;49.810;6.418;2023-07-29T04:44:56;10.95;;;4.30;;
12114;SDS011;6121;49.810;6.418;2023-07-29T04:47:22;14.82;;;5.70;;
12114;SDS011;6121;49.810;6.418;2023-07-29T04:49:48;11.50;;;4.63;;
12114;SDS011;6121;49.810;6.418;2023-07-29T04:52:14;11.57;;;4.55;;
12114;SDS011;6121;49.810;6.418;2023-07-29T04:54:40;10.60;;;4.45;;
12114;SDS011;6121;49.810;6.418;2023-07-29T04:57:07;12.98;;;5.10;;
12114;SDS011;6121;49.810;6.418;2023-07-29T04:59:33;10.00;;;4.13;;
12114;SDS011;6121;49.810;6.418;2023-07-29T05:01:59;8.55;;;3.58;;
12114;SDS011;6121;49.810;6.418;2023-07-29T05:04:25;11.00;;;4.27;;
12114;SDS011;6121;49.810;6.418;2023-07-29T05:06:51;11.55;;;4.65;;
12114;SDS011;6121;49.810;6.418;2023-07-29T05:09:17;11.30;;;4.50;;
12114;SDS011;6121;49.810;6.418;2023-07-29T05:11:46;12.60;;;4.95;;
12114;SDS011;6121;49.810;6.418;2023-07-29T05:14:13;14.80;;;5.93;;
12114;SDS011;6121;49.810;6.418;2023-07-29T05:16:41;10.75;;;4.43;;
12114;SDS011;6121;49.810;6.418;2023-07-29T05:19:07;11.05;;;4.57;;
12114;SDS011;6121;49.810;6.418;2023-07-29T05:21:33;13.35;;;5.18;;
12114;SDS011;6121;49.810;6.418;2023-07-29T05:24:00;11.05;;;4.38;;
12114;SDS011;6121;49.810;6.418;2023-07-29T05:26:26;12.45;;;4.93;;
12114;SDS011;6121;49.810;6.418;2023-07-29T05:28:52;12.52;;;4.88;;
12114;SDS011;6121;49.810;6.418;2023-07-29T05:31:17;10.83;;;4.40;;
12114;SDS011;6121;49.810;6.418;2023-07-29T05:33:44;11.25;;;4.60;;
12114;SDS011;6121;49.810;6.418;2023-07-29T05:36:10;10.40;;;4.28;;
12114;SDS011;6121;49.810;6.418;2023-07-29T05:38:36;11.97;;;4.73;;
12114;SDS011;6121;49.810;6.418;2023-07-29T05:41:02;12.70;;;5.10;;
12114;SDS011;6121;49.810;6.418;2023-07-29T05:43:28;11.40;;;4.60;;
12114;SDS011;6121;49.810;6.418;2023-07-29T05:45:54;12.77;;;4.97;;
12114;SDS011;6121;49.810;6.418;2023-07-29T05:48:21;13.27;;;5.10;;
12114;SDS011;6121;49.810;6.418;2023-07-29T05:50:47;15.73;;;6.07;;
12114;SDS011;6121;49.810;6.418;2023-07-29T05:53:13;11.15;;;4.47;;
12114;SDS011;6121;49.810;6.418;2023-07-29T05:55:41;12.25;;;4.75;;
12114;SDS011;6121;49.810;6.418;2023-07-29T05:58:07;28.20;;;10.68;;
12114;SDS011;6121;49.810;6.418;2023-07-29T06:00:33;28.92;;;10.75;;
12114;SDS011;6121;49.810;6.418;2023-07-29T06:02:59;34.40;;;13.20;;
12114;SDS011;6121;49.810;6.418;2023-07-29T06:05:25;28.23;;;10.80;;
12114;SDS011;6121;49.810;6.418;2023-07-29T06:07:51;29.45;;;11.15;;
12114;SDS011;6121;49.810;6.418;2023-07-29T06:10:17;21.57;;;8.40;;
12114;SDS011;6121;49.810;6.418;2023-07-29T06:12:44;26.77;;;9.90;;
12114;SDS011;6121;49.810;6.418;2023-07-29T06:15:10;24.10;;;9.10;;
12114;SDS011;6121;49.810;6.418;2023-07-29T06:17:37;32.78;;;12.65;;
12114;SDS011;6121;49.810;6.418;2023-07-29T06:20:04;24.85;;;9.57;;
12114;SDS011;6121;49.810;6.418;2023-07-29T06:22:31;25.20;;;9.70;;
12114;SDS011;6121;49.810;6.418;2023-07-29T06:24:57;21.63;;;8.35;;
12114;SDS011;6121;49.810;6.418;2023-07-29T06:27:23;33.83;;;13.20;;
12114;SDS011;6121;49.810;6.418;2023-07-29T06:29:50;21.95;;;8.85;;
12114;SDS011;6121;49.810;6.418;2023-07-29T06:32:16;22.83;;;8.57;;
12114;SDS011;6121;49.810;6.418;2023-07-29T06:34:42;22.53;;;8.73;;
12114;SDS011;6121;49.810;6.418;2023-07-29T06:37:07;33.33;;;12.73;;
12114;SDS011;6121;49.810;6.418;2023-07-29T06:39:33;21.98;;;8.50;;
12114;SDS011;6121;49.810;6.418;2023-07-29T06:41:59;25.03;;;9.30;;
12114;SDS011;6121;49.810;6.418;2023-07-29T06:44:25;25.27;;;9.50;;
12114;SDS011;6121;49.810;6.418;2023-07-29T06:46:50;28.63;;;10.55;;
12114;SDS011;6121;49.810;6.418;2023-07-29T06:49:16;22.98;;;8.88;;
12114;SDS011;6121;49.810;6.418;2023-07-29T06:51:42;31.43;;;12.00;;
12114;SDS011;6121;49.810;6.418;2023-07-29T06:54:08;27.70;;;10.85;;
12114;SDS011;6121;49.810;6.418;2023-07-29T06:56:33;28.17;;;10.80;;
12114;SDS011;6121;49.810;6.418;2023-07-29T06:58:59;27.97;;;10.77;;
12114;SDS011;6121;49.810;6.418;2023-07-29T07:01:25;30.67;;;11.80;;
12114;SDS011;6121;49.810;6.418;2023-07-29T07:03:51;27.37;;;10.60;;
12114;SDS011;6121;49.810;6.418;2023-07-29T07:06:20;29.02;;;11.07;;
12114;SDS011;6121;49.810;6.418;2023-07-29T07:08:47;25.03;;;9.63;;
12114;SDS011;6121;49.810;6.418;2023-07-29T07:11:13;25.42;;;9.88;;
12114;SDS011;6121;49.810;6.418;2023-07-29T07:13:39;30.73;;;11.57;;
12114;SDS011;6121;49.810;6.418;2023-07-29T07:16:04;27.47;;;10.73;;
12114;SDS011;6121;49.810;6.418;2023-07-29T07:18:30;23.65;;;9.07;;
12114;SDS011;6121;49.810;6.418;2023-07-29T07:20:56;29.65;;;11.30;;
12114;SDS011;6121;49.810;6.418;2023-07-29T07:23:22;24.60;;;9.77;;
12114;SDS011;6121;49.810;6.418;2023-07-29T07:25:47;26.58;;;10.00;;
12114;SDS011;6121;49.810;6.418;2023-07-29T07:28:13;26.85;;;10.38;;
12114;SDS011;6121;49.810;6.418;2023-07-29T07:30:39;27.70;;;10.70;;
12114;SDS011;6121;49.810;6.418;2023-07-29T07:33:06;25.50;;;9.83;;
12114;SDS011;6121;49.810;6.418;2023-07-29T07:35:32;25.63;;;9.83;;
12114;SDS011;6121;49.810;6.418;2023-07-29T07:38:10;40.22;;;14.93;;
12114;SDS011;6121;49.810;6.418;2023-07-29T07:40:36;28.02;;;10.75;;
12114;SDS011;6121;49.810;6.418;2023-07-29T07:43:02;27.07;;;10.13;;
12114;SDS011;6121;49.810;6.418;2023-07-29T07:45:27;24.48;;;9.63;;
12114;SDS011;6121;49.810;6.418;2023-07-29T07:47:53;32.13;;;12.23;;
12114;SDS011;6121;49.810;6.418;2023-07-29T07:50:19;27.97;;;10.93;;
12114;SDS011;6121;49.810;6.418;2023-07-29T07:52:45;31.98;;;12.43;;
12114;SDS011;6121;49.810;6.418;2023-07-29T07:55:11;26.30;;;10.47;;
12114;SDS011;6121;49.810;6.418;2023-07-29T07:57:37;38.53;;;15.10;;
12114;SDS011;6121;49.810;6.418;2023-07-29T08:00:03;29.80;;;11.67;;
12114;SDS011;6121;49.810;6.418;2023-07-29T08:02:38;26.17;;;10.20;;
12114;SDS011;6121;49.810;6.418;2023-07-29T08:05:04;27.70;;;10.73;;
12114;SDS011;6121;49.810;6.418;2023-07-29T08:07:30;35.40;;;13.88;;
12114;SDS011;6121;49.810;6.418;2023-07-29T08:09:55;26.20;;;10.32;;
12114;SDS011;6121;49.810;6.418;2023-07-29T08:12:21;27.80;;;10.80;;
12114;SDS011;6121;49.810;6.418;2023-07-29T08:14:47;28.42;;;11.02;;
12114;SDS011;6121;49.810;6.418;2023-07-29T08:17:13;38.47;;;14.67;;
12114;SDS011;6121;49.810;6.418;2023-07-29T08:19:38;26.35;;;10.15;;
12114;SDS011;6121;49.810;6.418;2023-07-29T08:22:04;31.73;;;12.50;;
12114;SDS011;6121;49.810;6.418;2023-07-29T08:24:30;28.10;;;10.88;;
12114;SDS011;6121;49.810;6.418;2023-07-29T08:26:56;29.02;;;11.55;;
12114;SDS011;6121;49.810;6.418;2023-07-29T08:29:22;26.83;;;10.67;;
12114;SDS011;6121;49.810;6.418;2023-07-29T08:31:48;28.48;;;11.52;;
12114;SDS011;6121;49.810;6.418;2023-07-29T08:34:14;27.45;;;10.65;;
12114;SDS011;6121;49.810;6.418;2023-07-29T08:36:39;22.25;;;9.00;;
12114;SDS011;6121;49.810;6.418;2023-07-29T08:39:05;25.23;;;10.37;;
12114;SDS011;6121;49.810;6.418;2023-07-29T08:41:32;28.65;;;11.52;;
12114;SDS011;6121;49.810;6.418;2023-07-29T08:44:25;25.80;;;10.43;;
12114;SDS011;6121;49.810;6.418;2023-07-29T08:46:54;30.30;;;12.43;;
12114;SDS011;6121;49.810;6.418;2023-07-29T08:49:22;24.35;;;10.00;;
12114;SDS011;6121;49.810;6.418;2023-07-29T08:51:49;25.83;;;10.68;;
12114;SDS011;6121;49.810;6.418;2023-07-29T08:54:18;25.73;;;10.57;;
12114;SDS011;6121;49.810;6.418;2023-07-29T08:56:44;24.07;;;9.80;;
12114;SDS011;6121;49.810;6.418;2023-07-29T08:59:11;24.63;;;10.23;;
12114;SDS011;6121;49.810;6.418;2023-07-29T09:01:41;24.08;;;10.38;;
12114;SDS011;6121;49.810;6.418;2023-07-29T09:04:07;25.75;;;10.85;;
12114;SDS011;6121;49.810;6.418;2023-07-29T09:06:33;25.33;;;10.80;;
12114;SDS011;6121;49.810;6.418;2023-07-29T09:09:01;25.88;;;10.82;;
12114;SDS011;6121;49.810;6.418;2023-07-29T09:11:27;28.23;;;11.73;;
12114;SDS011;6121;49.810;6.418;2023-07-29T09:13:53;22.30;;;9.40;;
12114;SDS011;6121;49.810;6.418;2023-07-29T09:16:20;26.42;;;10.70;;
12114;SDS011;6121;49.810;6.418;2023-07-29T09:18:49;20.77;;;8.85;;
12114;SDS011;6121;49.810;6.418;2023-07-29T09:21:17;23.95;;;9.95;;
12114;SDS011;6121;49.810;6.418;2023-07-29T09:23:43;22.90;;;9.75;;
12114;SDS011;6121;49.810;6.418;2023-07-29T09:26:10;22.83;;;9.93;;
12114;SDS011;6121;49.810;6.418;2023-07-29T09:28:37;22.35;;;9.35;;
12114;SDS011;6121;49.810;6.418;2023-07-29T09:31:04;22.52;;;9.80;;
12114;SDS011;6121;49.810;6.418;2023-07-29T09:33:32;24.88;;;10.95;;
12114;SDS011;6121;49.810;6.418;2023-07-29T09:36:02;24.42;;;10.43;;
12114;SDS011;6121;49.810;6.418;2023-07-29T09:38:35;20.83;;;8.88;;
12114;SDS011;6121;49.810;6.418;2023-07-29T09:41:01;23.10;;;9.83;;
12114;SDS011;6121;49.810;6.418;2023-07-29T09:43:34;29.14;;;12.64;;
12114;SDS011;6121;49.810;6.418;2023-07-29T09:46:04;25.25;;;10.93;;
12114;SDS011;6121;49.810;6.418;2023-07-29T09:48:35;25.95;;;10.90;;
12114;SDS011;6121;49.810;6.418;2023-07-29T09:51:14;26.10;;;11.07;;
12114;SDS011;6121;49.810;6.418;2023-07-29T09:53:45;26.17;;;11.23;;
12114;SDS011;6121;49.810;6.418;2023-07-29T09:56:12;28.02;;;12.05;;
12114;SDS011;6121;49.810;6.418;2023-07-29T09:58:38;23.48;;;9.70;;
12114;SDS011;6121;49.810;6.418;2023-07-29T10:01:08;25.70;;;10.80;;
12114;SDS011;6121;49.810;6.418;2023-07-29T10:03:34;28.48;;;11.73;;
12114;SDS011;6121;49.810;6.418;2023-07-29T10:06:02;34.28;;;12.15;;
12114;SDS011;6121;49.810;6.418;2023-07-29T10:08:30;31.83;;;11.27;;
12114;SDS011;6121;49.810;6.418;2023-07-29T10:11:07;29.08;;;10.40;;
12114;SDS011;6121;49.810;6.418;2023-07-29T10:13:35;34.40;;;12.37;;
12114;SDS011;6121;49.810;6.418;2023-07-29T10:16:01;29.95;;;10.82;;
12114;SDS011;6121;49.810;6.418;2023-07-29T10:18:29;33.38;;;11.93;;
12114;SDS011;6121;49.810;6.418;2023-07-29T10:20:56;32.60;;;11.43;;
12114;SDS011;6121;49.810;6.418;2023-07-29T10:23:24;34.33;;;12.30;;
12114;SDS011;6121;49.810;6.418;2023-07-29T10:26:12;30.38;;;10.32;;
12114;SDS011;6121;49.810;6.418;2023-07-29T10:28:41;34.57;;;11.93;;
12114;SDS011;6121;49.810;6.418;2023-07-29T10:31:12;29.63;;;10.18;;
12114;SDS011;6121;49.810;6.418;2023-07-29T10:33:40;36.77;;;12.67;;
12114;SDS011;6121;49.810;6.418;2023-07-29T10:36:06;31.45;;;10.98;;
12114;SDS011;6121;49.810;6.418;2023-07-29T10:38:33;35.03;;;11.97;;
12114;SDS011;6121;49.810;6.418;2023-07-29T10:41:01;33.43;;;11.43;;
12114;SDS011;6121;49.810;6.418;2023-07-29T10:43:31;32.67;;;11.52;;
12114;SDS011;6121;49.810;6.418;2023-07-29T10:46:18;30.38;;;10.70;;
12114;SDS011;6121;49.810;6.418;2023-07-29T10:51:27;33.92;;;11.52;;
12114;SDS011;6121;49.810;6.418;2023-07-29T10:54:13;29.13;;;10.10;;
12114;SDS011;6121;49.810;6.418;2023-07-29T10:56:41;32.03;;;10.93;;
12114;SDS011;6121;49.810;6.418;2023-07-29T11:01:37;35.50;;;11.95;;
12114;SDS011;6121;49.810;6.418;2023-07-29T11:07:01;32.60;;;11.25;;
12114;SDS011;6121;49.810;6.418;2023-07-29T11:17:56;41.40;;;14.23;;
12114;SDS011;6121;49.810;6.418;2023-07-29T11:20:32;35.30;;;11.95;;
12114;SDS011;6121;49.810;6.418;2023-07-29T11:23:02;30.70;;;10.40;;
12114;SDS011;6121;49.810;6.418;2023-07-29T11:25:29;30.85;;;10.27;;
12114;SDS011;6121;49.810;6.418;2023-07-29T11:27:56;42.08;;;14.50;;
12114;SDS011;6121;49.810;6.418;2023-07-29T11:30:23;31.27;;;10.85;;
12114;SDS011;6121;49.810;6.418;2023-07-29T11:32:51;33.58;;;11.35;;
12114;SDS011;6121;49.810;6.418;2023-07-29T11:35:19;34.10;;;11.40;;
12114;SDS011;6121;49.810;6.418;2023-07-29T11:37:45;55.08;;;18.38;;
12114;SDS011;6121;49.810;6.418;2023-07-29T11:40:16;30.58;;;10.30;;
12114;SDS011;6121;49.810;6.418;2023-07-29T11:42:47;34.97;;;11.68;;
12114;SDS011;6121;49.810;6.418;2023-07-29T11:45:15;28.05;;;9.55;;
12114;SDS011;6121;49.810;6.418;2023-07-29T11:47:41;50.30;;;16.58;;
12114;SDS011;6121;49.810;6.418;2023-07-29T11:50:08;28.98;;;9.98;;
12114;SDS011;6121;49.810;6.418;2023-07-29T11:52:36;41.30;;;13.80;;
12114;SDS011;6121;49.810;6.418;2023-07-29T11:55:03;29.40;;;9.98;;
12114;SDS011;6121;49.810;6.418;2023-07-29T11:57:33;40.97;;;13.77;;
12114;SDS011;6121;49.810;6.418;2023-07-29T12:00:02;31.23;;;10.50;;
12114;SDS011;6121;49.810;6.418;2023-07-29T12:02:37;36.60;;;12.32;;
12114;SDS011;6121;49.810;6.418;2023-07-29T12:05:05;33.80;;;11.35;;
12114;SDS011;6121;49.810;6.418;2023-07-29T12:07:32;43.35;;;14.45;;
12114;SDS011;6121;49.810;6.418;2023-07-29T12:10:01;27.08;;;8.98;;
12114;SDS011;6121;49.810;6.418;2023-07-29T12:12:28;38.28;;;12.73;;
12114;SDS011;6121;49.810;6.418;2023-07-29T12:14:54;31.30;;;10.55;;
12114;SDS011;6121;49.810;6.418;2023-07-29T12:17:21;41.88;;;13.90;;
12114;SDS011;6121;49.810;6.418;2023-07-29T12:19:47;31.55;;;10.60;;
12114;SDS011;6121;49.810;6.418;2023-07-29T12:22:17;34.45;;;11.65;;
12114;SDS011;6121;49.810;6.418;2023-07-29T12:24:44;32.25;;;10.73;;
12114;SDS011;6121;49.810;6.418;2023-07-29T12:27:10;33.75;;;11.23;;
12114;SDS011;6121;49.810;6.418;2023-07-29T12:29:41;32.47;;;10.73;;
12114;SDS011;6121;49.810;6.418;2023-07-29T12:32:08;37.33;;;12.48;;
12114;SDS011;6121;49.810;6.418;2023-07-29T12:34:35;34.17;;;11.75;;
12114;SDS011;6121;49.810;6.418;2023-07-29T12:37:04;48.05;;;15.77;;
12114;SDS011;6121;49.810;6.418;2023-07-29T12:39:31;38.13;;;12.73;;
12114;SDS011;6121;49.810;6.418;2023-07-29T12:42:00;34.72;;;11.65;;
12114;SDS011;6121;49.810;6.418;2023-07-29T12:44:30;29.25;;;10.05;;
12114;SDS011;6121;49.810;6.418;2023-07-29T12:46:57;34.83;;;11.80;;
12114;SDS011;6121;49.810;6.418;2023-07-29T12:49:23;30.90;;;10.80;;
12114;SDS011;6121;49.810;6.418;2023-07-29T12:51:50;36.50;;;12.23;;
12114;SDS011;6121;49.810;6.418;2023-07-29T12:54:15;29.88;;;10.50;;
12114;SDS011;6121;49.810;6.418;2023-07-29T12:56:41;32.57;;;11.10;;
12114;SDS011;6121;49.810;6.418;2023-07-29T12:59:07;29.73;;;10.30;;
12114;SDS011;6121;49.810;6.418;2023-07-29T13:01:32;38.20;;;13.00;;
12114;SDS011;6121;49.810;6.418;2023-07-29T13:03:58;32.58;;;11.05;;
12114;SDS011;6121;49.810;6.418;2023-07-29T13:06:24;30.63;;;10.17;;
12114;SDS011;6121;49.810;6.418;2023-07-29T13:08:50;34.37;;;11.57;;
12114;SDS011;6121;49.810;6.418;2023-07-29T13:11:16;37.88;;;12.57;;
12114;SDS011;6121;49.810;6.418;2023-07-29T13:13:42;36.80;;;12.70;;
12114;SDS011;6121;49.810;6.418;2023-07-29T13:16:08;30.77;;;10.23;;
12114;SDS011;6121;49.810;6.418;2023-07-29T13:18:33;37.03;;;12.43;;
12114;SDS011;6121;49.810;6.418;2023-07-29T13:20:59;34.73;;;11.30;;
12114;SDS011;6121;49.810;6.418;2023-07-29T13:23:25;36.15;;;12.35;;
12114;SDS011;6121;49.810;6.418;2023-07-29T13:25:52;33.42;;;11.35;;
12114;SDS011;6121;49.810;6.418;2023-07-29T13:28:18;36.63;;;12.63;;
12114;SDS011;6121;49.810;6.418;2023-07-29T13:30:44;37.58;;;12.48;;
12114;SDS011;6121;49.810;6.418;2023-07-29T13:33:10;30.05;;;10.38;;
12114;SDS011;6121;49.810;6.418;2023-07-29T13:35:36;28.33;;;9.93;;
12114;SDS011;6121;49.810;6.418;2023-07-29T13:38:02;51.25;;;17.05;;
12114;SDS011;6121;49.810;6.418;2023-07-29T13:40:28;31.03;;;10.50;;
12114;SDS011;6121;49.810;6.418;2023-07-29T13:42:54;40.60;;;13.48;;
12114;SDS011;6121;49.810;6.418;2023-07-29T13:45:20;33.23;;;11.40;;
12114;SDS011;6121;49.810;6.418;2023-07-29T13:47:47;43.25;;;14.55;;
12114;SDS011;6121;49.810;6.418;2023-07-29T13:50:13;33.97;;;11.60;;
12114;SDS011;6121;49.810;6.418;2023-07-29T13:52:39;45.15;;;15.23;;
12114;SDS011;6121;49.810;6.418;2023-07-29T13:55:05;39.10;;;13.48;;
12114;SDS011;6121;49.810;6.418;2023-07-29T13:57:31;38.90;;;13.05;;
12114;SDS011;6121;49.810;6.418;2023-07-29T13:59:57;37.75;;;12.85;;
12114;SDS011;6121;49.810;6.418;2023-07-29T14:02:24;41.63;;;14.02;;
12114;SDS011;6121;49.810;6.418;2023-07-29T14:04:51;35.75;;;12.15;;
12114;SDS011;6121;49.810;6.418;2023-07-29T14:07:18;40.20;;;13.23;;
12114;SDS011;6121;49.810;6.418;2023-07-29T14:09:43;35.97;;;12.25;;
12114;SDS011;6121;49.810;6.418;2023-07-29T14:12:09;40.17;;;13.37;;
12114;SDS011;6121;49.810;6.418;2023-07-29T14:14:40;36.67;;;12.25;;
12114;SDS011;6121;49.810;6.418;2023-07-29T14:17:06;40.00;;;13.43;;
12114;SDS011;6121;49.810;6.418;2023-07-29T14:19:33;36.67;;;12.13;;
12114;SDS011;6121;49.810;6.418;2023-07-29T14:21:59;41.10;;;13.63;;
12114;SDS011;6121;49.810;6.418;2023-07-29T14:24:25;30.92;;;10.40;;
12114;SDS011;6121;49.810;6.418;2023-07-29T14:26:51;37.28;;;12.55;;
12114;SDS011;6121;49.810;6.418;2023-07-29T14:29:17;36.33;;;12.13;;
12114;SDS011;6121;49.810;6.418;2023-07-29T14:31:43;45.50;;;14.83;;
12114;SDS011;6121;49.810;6.418;2023-07-29T14:34:09;34.67;;;11.48;;
12114;SDS011;6121;49.810;6.418;2023-07-29T14:36:35;35.72;;;11.63;;
12114;SDS011;6121;49.810;6.418;2023-07-29T14:39:01;36.05;;;11.80;;
12114;SDS011;6121;49.810;6.418;2023-07-29T14:41:27;40.75;;;13.38;;
12114;SDS011;6121;49.810;6.418;2023-07-29T14:43:53;35.85;;;12.00;;
12114;SDS011;6121;49.810;6.418;2023-07-29T14:46:19;38.30;;;12.68;;
12114;SDS011;6121;49.810;6.418;2023-07-29T14:48:44;40.67;;;13.57;;
12114;SDS011;6121;49.810;6.418;2023-07-29T14:51:12;39.20;;;12.87;;
12114;SDS011;6121;49.810;6.418;2023-07-29T14:53:38;42.47;;;13.65;;
12114;SDS011;6121;49.810;6.418;2023-07-29T14:56:04;34.83;;;11.63;;
12114;SDS011;6121;49.810;6.418;2023-07-29T14:58:30;37.88;;;12.27;;